sensor_id;sensor_type;location;lat;lon;timestamp;pressure;altitude;pressure_sealevel;temperature;humidity
30708;BME280;17458;48.958;8.284;2023-05-11T00:01:06;100194.25;;;15.41;70.28
30708;BME280;17458;48.958;8.284;2023-05-11T00:03:50;100193.44;;;15.45;69.78
30708;BME280;17458;48.958;8.284;2023-05-11T00:06:34;100197.59;;;15.34;70.10
30708;BME280;17458;48.958;8.284;2023-05-11T00:09:18;100201.19;;;15.34;70.39
30708;BME280;17458;48.958;8.284;2023-05-11T00:12:02;100195.97;;;15.39;70.49
30708;BME280;17458;48.958;8.284;2023-05-11T00:14:46;100197.03;;;15.45;69.84
30708;BME280;17458;48.958;8.284;2023-05-11T00:17:30;100197.03;;;15.45;69.81
30708;BME280;17458;48.958;8.284;2023-05-11T00:20:14;100193.69;;;15.52;69.46
30708;BME280;17458;48.958;8.284;2023-05-11T00:22:58;100197.44;;;15.57;69.31
30708;BME280;17458;48.958;8.284;2023-05-11T00:25:42;100195.66;;;15.58;69.19
30708;BME280;17458;48.958;8.284;2023-05-11T00:28:26;100198.19;;;15.53;69.34
30708;BME280;17458;48.958;8.284;2023-05-11T00:31:11;100195.44;;;15.52;69.23
30708;BME280;17458;48.958;8.284;2023-05-11T00:33:54;100183.78;;;15.50;69.36
30708;BME280;17458;48.958;8.284;2023-05-11T00:36:38;100188.72;;;15.35;69.61
30708;BME280;17458;48.958;8.284;2023-05-11T00:39:23;100197.88;;;15.43;69.79
30708;BME280;17458;48.958;8.284;2023-05-11T00:42:07;100190.00;;;15.49;69.29
30708;BME280;17458;48.958;8.284;2023-05-11T00:44:50;100193.72;;;15.22;70.05
30708;BME280;17458;48.958;8.284;2023-05-11T00:47:34;100193.25;;;15.37;69.69
30708;BME280;17458;48.958;8.284;2023-05-11T00:50:18;100183.38;;;15.35;69.44
30708;BME280;17458;48.958;8.284;2023-05-11T00:53:03;100193.22;;;15.36;69.29
30708;BME280;17458;48.958;8.284;2023-05-11T00:55:46;100191.53;;;15.39;69.24
30708;BME280;17458;48.958;8.284;2023-05-11T00:58:30;100188.19;;;15.16;70.13
30708;BME280;17458;48.958;8.284;2023-05-11T01:01:15;100192.25;;;15.34;69.49
30708;BME280;17458;48.958;8.284;2023-05-11T01:04:02;100190.97;;;15.19;69.50
30708;BME280;17458;48.958;8.284;2023-05-11T01:06:51;100182.72;;;15.12;69.89
30708;BME280;17458;48.958;8.284;2023-05-11T01:15:50;100179.16;;;15.43;69.19
30708;BME280;17458;48.958;8.284;2023-05-11T01:18:41;100187.19;;;15.43;68.87
30708;BME280;17458;48.958;8.284;2023-05-11T01:21:32;100175.13;;;15.57;68.38
30708;BME280;17458;48.958;8.284;2023-05-11T01:27:43;100182.88;;;15.49;68.37
30708;BME280;17458;48.958;8.284;2023-05-11T01:30:27;100183.13;;;15.25;69.28
30708;BME280;17458;48.958;8.284;2023-05-11T01:33:13;100184.50;;;15.43;68.67
30708;BME280;17458;48.958;8.284;2023-05-11T01:36:05;100178.81;;;15.32;68.65
30708;BME280;17458;48.958;8.284;2023-05-11T01:38:52;100176.38;;;15.08;69.49
30708;BME280;17458;48.958;8.284;2023-05-11T01:41:39;100178.41;;;15.17;69.55
30708;BME280;17458;48.958;8.284;2023-05-11T01:44:27;100180.22;;;14.88;71.00
30708;BME280;17458;48.958;8.284;2023-05-11T01:47:14;100184.44;;;15.10;70.14
30708;BME280;17458;48.958;8.284;2023-05-11T01:50:00;100185.31;;;15.09;69.97
30708;BME280;17458;48.958;8.284;2023-05-11T01:52:46;100177.28;;;15.09;70.26
30708;BME280;17458;48.958;8.284;2023-05-11T01:55:33;100182.06;;;15.20;69.75
30708;BME280;17458;48.958;8.284;2023-05-11T01:58:19;100192.16;;;15.31;69.41
30708;BME280;17458;48.958;8.284;2023-05-11T02:01:05;100181.78;;;15.10;69.74
30708;BME280;17458;48.958;8.284;2023-05-11T02:03:52;100185.75;;;15.24;69.55
30708;BME280;17458;48.958;8.284;2023-05-11T02:06:38;100187.06;;;15.08;70.24
30708;BME280;17458;48.958;8.284;2023-05-11T02:09:23;100186.50;;;14.60;72.16
30708;BME280;17458;48.958;8.284;2023-05-11T02:12:08;100190.91;;;14.86;70.98
30708;BME280;17458;48.958;8.284;2023-05-11T02:14:56;100188.88;;;15.09;70.09
30708;BME280;17458;48.958;8.284;2023-05-11T02:17:41;100187.22;;;15.13;69.87
30708;BME280;17458;48.958;8.284;2023-05-11T02:20:26;100185.81;;;14.96;70.62
30708;BME280;17458;48.958;8.284;2023-05-11T02:23:11;100190.47;;;15.03;70.33
30708;BME280;17458;48.958;8.284;2023-05-11T02:25:56;100179.56;;;14.95;70.71
30708;BME280;17458;48.958;8.284;2023-05-11T02:28:41;100187.47;;;14.92;70.44
30708;BME280;17458;48.958;8.284;2023-05-11T02:31:28;100183.91;;;14.92;70.90
30708;BME280;17458;48.958;8.284;2023-05-11T02:34:28;100189.88;;;15.13;70.19
30708;BME280;17458;48.958;8.284;2023-05-11T02:37:17;100188.28;;;14.89;71.27
30708;BME280;17458;48.958;8.284;2023-05-11T02:40:07;100181.28;;;14.93;70.79
30708;BME280;17458;48.958;8.284;2023-05-11T02:42:57;100186.78;;;14.69;71.74
30708;BME280;17458;48.958;8.284;2023-05-11T02:45:43;100194.13;;;14.48;71.92
30708;BME280;17458;48.958;8.284;2023-05-11T02:48:33;100188.28;;;14.60;71.97
30708;BME280;17458;48.958;8.284;2023-05-11T02:51:23;100194.81;;;14.69;71.58
30708;BME280;17458;48.958;8.284;2023-05-11T02:54:09;100190.13;;;14.62;72.02
30708;BME280;17458;48.958;8.284;2023-05-11T02:56:59;100183.16;;;14.67;71.61
30708;BME280;17458;48.958;8.284;2023-05-11T02:59:44;100190.47;;;14.44;72.33
30708;BME280;17458;48.958;8.284;2023-05-11T03:02:29;100188.88;;;14.51;72.38
30708;BME280;17458;48.958;8.284;2023-05-11T03:05:13;100183.81;;;14.59;71.84
30708;BME280;17458;48.958;8.284;2023-05-11T03:07:58;100182.53;;;14.47;72.83
30708;BME280;17458;48.958;8.284;2023-05-11T03:10:43;100179.53;;;14.65;71.63
30708;BME280;17458;48.958;8.284;2023-05-11T03:13:28;100175.19;;;14.69;71.32
30708;BME280;17458;48.958;8.284;2023-05-11T03:16:14;100186.47;;;14.59;71.37
30708;BME280;17458;48.958;8.284;2023-05-11T03:18:59;100192.91;;;14.65;71.58
30708;BME280;17458;48.958;8.284;2023-05-11T03:21:45;100188.84;;;14.78;70.89
30708;BME280;17458;48.958;8.284;2023-05-11T03:24:30;100189.16;;;14.60;71.74
30708;BME280;17458;48.958;8.284;2023-05-11T03:27:16;100186.00;;;14.43;72.63
30708;BME280;17458;48.958;8.284;2023-05-11T03:30:03;100181.38;;;14.39;72.20
30708;BME280;17458;48.958;8.284;2023-05-11T03:32:54;100184.44;;;14.51;72.01
30708;BME280;17458;48.958;8.284;2023-05-11T03:35:40;100178.34;;;14.56;72.02
30708;BME280;17458;48.958;8.284;2023-05-11T03:38:27;100184.97;;;14.68;71.30
30708;BME280;17458;48.958;8.284;2023-05-11T03:41:14;100182.53;;;14.76;71.38
30708;BME280;17458;48.958;8.284;2023-05-11T03:44:02;100182.81;;;14.85;70.83
30708;BME280;17458;48.958;8.284;2023-05-11T03:46:48;100188.72;;;14.75;70.98
30708;BME280;17458;48.958;8.284;2023-05-11T03:49:35;100181.91;;;14.84;70.67
30708;BME280;17458;48.958;8.284;2023-05-11T03:52:20;100185.41;;;14.82;70.66
30708;BME280;17458;48.958;8.284;2023-05-11T03:55:05;100179.28;;;14.86;70.79
30708;BME280;17458;48.958;8.284;2023-05-11T03:57:50;100175.78;;;14.88;70.74
30708;BME280;17458;48.958;8.284;2023-05-11T04:00:38;100179.25;;;14.84;70.89
30708;BME280;17458;48.958;8.284;2023-05-11T04:03:22;100178.22;;;14.81;70.95
30708;BME280;17458;48.958;8.284;2023-05-11T04:06:06;100185.75;;;14.94;70.94
30708;BME280;17458;48.958;8.284;2023-05-11T04:08:50;100172.50;;;14.97;70.51
30708;BME280;17458;48.958;8.284;2023-05-11T04:11:37;100173.50;;;15.02;70.53
30708;BME280;17458;48.958;8.284;2023-05-11T04:14:21;100178.38;;;14.85;70.78
30708;BME280;17458;48.958;8.284;2023-05-11T04:17:05;100179.78;;;14.73;71.44
30708;BME280;17458;48.958;8.284;2023-05-11T04:19:49;100180.09;;;14.83;70.91
30708;BME280;17458;48.958;8.284;2023-05-11T04:22:34;100178.44;;;14.88;70.85
30708;BME280;17458;48.958;8.284;2023-05-11T04:25:19;100182.78;;;14.83;71.05
30708;BME280;17458;48.958;8.284;2023-05-11T04:28:04;100177.69;;;14.93;70.81
30708;BME280;17458;48.958;8.284;2023-05-11T04:30:55;100186.88;;;15.02;70.97
30708;BME280;17458;48.958;8.284;2023-05-11T04:33:40;100188.06;;;14.82;71.72
30708;BME280;17458;48.958;8.284;2023-05-11T04:36:24;100190.97;;;14.60;72.22
30708;BME280;17458;48.958;8.284;2023-05-11T04:39:08;100194.00;;;14.43;73.07
30708;BME280;17458;48.958;8.284;2023-05-11T04:41:55;100188.72;;;14.46;72.97
30708;BME280;17458;48.958;8.284;2023-05-11T04:44:40;100193.63;;;14.60;72.56
30708;BME280;17458;48.958;8.284;2023-05-11T04:47:24;100196.94;;;14.26;74.00
30708;BME280;17458;48.958;8.284;2023-05-11T04:50:08;100194.38;;;14.29;73.96
30708;BME280;17458;48.958;8.284;2023-05-11T04:52:53;100191.19;;;14.67;72.25
30708;BME280;17458;48.958;8.284;2023-05-11T04:55:37;100191.94;;;14.36;73.47
30708;BME280;17458;48.958;8.284;2023-05-11T04:58:21;100194.56;;;14.62;72.20
30708;BME280;17458;48.958;8.284;2023-05-11T05:01:06;100184.06;;;14.68;72.05
30708;BME280;17458;48.958;8.284;2023-05-11T05:03:50;100181.59;;;14.45;72.68
30708;BME280;17458;48.958;8.284;2023-05-11T05:06:34;100191.09;;;14.64;72.75
30708;BME280;17458;48.958;8.284;2023-05-11T05:09:20;100189.47;;;14.69;71.97
30708;BME280;17458;48.958;8.284;2023-05-11T05:12:05;100189.78;;;14.80;71.88
30708;BME280;17458;48.958;8.284;2023-05-11T05:14:49;100193.97;;;14.70;71.87
30708;BME280;17458;48.958;8.284;2023-05-11T05:17:33;100197.81;;;14.80;71.50
30708;BME280;17458;48.958;8.284;2023-05-11T05:20:18;100193.38;;;14.80;71.61
30708;BME280;17458;48.958;8.284;2023-05-11T05:23:04;100204.56;;;14.97;71.12
30708;BME280;17458;48.958;8.284;2023-05-11T05:25:48;100206.38;;;15.28;70.29
30708;BME280;17458;48.958;8.284;2023-05-11T05:28:33;100206.56;;;15.04;70.45
30708;BME280;17458;48.958;8.284;2023-05-11T05:31:19;100209.78;;;14.93;71.03
30708;BME280;17458;48.958;8.284;2023-05-11T05:34:03;100211.59;;;14.94;70.67
30708;BME280;17458;48.958;8.284;2023-05-11T05:36:47;100212.09;;;14.80;71.30
30708;BME280;17458;48.958;8.284;2023-05-11T05:39:31;100220.06;;;14.79;71.09
30708;BME280;17458;48.958;8.284;2023-05-11T05:42:15;100212.69;;;15.00;70.41
30708;BME280;17458;48.958;8.284;2023-05-11T05:44:59;100218.09;;;15.02;70.86
30708;BME280;17458;48.958;8.284;2023-05-11T05:47:44;100212.66;;;14.99;70.40
30708;BME280;17458;48.958;8.284;2023-05-11T05:50:29;100221.69;;;15.04;70.72
30708;BME280;17458;48.958;8.284;2023-05-11T05:53:14;100220.41;;;14.91;70.78
30708;BME280;17458;48.958;8.284;2023-05-11T05:55:58;100222.28;;;14.94;71.25
30708;BME280;17458;48.958;8.284;2023-05-11T05:58:42;100209.88;;;14.67;72.18
30708;BME280;17458;48.958;8.284;2023-05-11T06:01:28;100214.69;;;15.07;70.80
30708;BME280;17458;48.958;8.284;2023-05-11T06:04:12;100216.59;;;15.11;70.95
30708;BME280;17458;48.958;8.284;2023-05-11T06:06:56;100219.31;;;15.13;69.91
30708;BME280;17458;48.958;8.284;2023-05-11T06:09:41;100220.25;;;14.57;72.44
30708;BME280;17458;48.958;8.284;2023-05-11T06:12:26;100224.50;;;15.08;70.17
30708;BME280;17458;48.958;8.284;2023-05-11T06:15:12;100213.13;;;15.47;69.50
30708;BME280;17458;48.958;8.284;2023-05-11T06:18:00;100217.31;;;15.67;69.27
30708;BME280;17458;48.958;8.284;2023-05-11T06:20:44;100221.53;;;15.57;69.64
30708;BME280;17458;48.958;8.284;2023-05-11T06:23:29;100221.91;;;15.71;68.08
30708;BME280;17458;48.958;8.284;2023-05-11T06:26:14;100219.38;;;15.77;68.87
30708;BME280;17458;48.958;8.284;2023-05-11T06:28:59;100223.34;;;15.29;69.94
30708;BME280;17458;48.958;8.284;2023-05-11T06:31:43;100215.53;;;15.36;70.35
30708;BME280;17458;48.958;8.284;2023-05-11T06:34:27;100216.28;;;15.62;69.40
30708;BME280;17458;48.958;8.284;2023-05-11T06:37:12;100221.34;;;15.53;69.64
30708;BME280;17458;48.958;8.284;2023-05-11T06:40:05;100213.38;;;15.54;69.50
30708;BME280;17458;48.958;8.284;2023-05-11T06:42:51;100216.38;;;15.65;68.97
30708;BME280;17458;48.958;8.284;2023-05-11T06:45:35;100218.13;;;15.65;69.39
30708;BME280;17458;48.958;8.284;2023-05-11T06:48:20;100216.19;;;15.92;69.27
30708;BME280;17458;48.958;8.284;2023-05-11T06:51:09;100215.41;;;15.96;68.77
30708;BME280;17458;48.958;8.284;2023-05-11T06:53:54;100216.19;;;15.92;68.79
30708;BME280;17458;48.958;8.284;2023-05-11T06:56:38;100220.72;;;15.94;68.98
30708;BME280;17458;48.958;8.284;2023-05-11T06:59:22;100227.06;;;16.33;68.00
30708;BME280;17458;48.958;8.284;2023-05-11T07:02:06;100223.94;;;16.16;68.52
30708;BME280;17458;48.958;8.284;2023-05-11T07:04:50;100218.94;;;16.28;67.93
30708;BME280;17458;48.958;8.284;2023-05-11T07:07:34;100225.72;;;16.14;67.27
30708;BME280;17458;48.958;8.284;2023-05-11T07:10:17;100232.94;;;16.18;67.38
30708;BME280;17458;48.958;8.284;2023-05-11T07:13:01;100233.31;;;16.33;66.29
30708;BME280;17458;48.958;8.284;2023-05-11T07:15:45;100227.50;;;16.15;66.62
30708;BME280;17458;48.958;8.284;2023-05-11T07:18:29;100235.41;;;16.09;66.43
30708;BME280;17458;48.958;8.284;2023-05-11T07:21:14;100223.94;;;16.16;66.64
30708;BME280;17458;48.958;8.284;2023-05-11T07:23:58;100229.22;;;16.47;66.39
30708;BME280;17458;48.958;8.284;2023-05-11T07:26:42;100235.16;;;16.70;64.82
30708;BME280;17458;48.958;8.284;2023-05-11T07:29:26;100235.09;;;17.06;63.75
30708;BME280;17458;48.958;8.284;2023-05-11T07:32:11;100239.47;;;16.63;65.21
30708;BME280;17458;48.958;8.284;2023-05-11T07:34:54;100244.22;;;16.75;65.28
30708;BME280;17458;48.958;8.284;2023-05-11T07:37:58;100233.72;;;16.84;65.31
30708;BME280;17458;48.958;8.284;2023-05-11T07:40:43;100236.41;;;16.84;65.14
30708;BME280;17458;48.958;8.284;2023-05-11T07:43:26;100244.75;;;16.99;64.43
30708;BME280;17458;48.958;8.284;2023-05-11T07:46:10;100236.44;;;17.26;63.73
30708;BME280;17458;48.958;8.284;2023-05-11T07:48:55;100250.47;;;17.15;62.78
30708;BME280;17458;48.958;8.284;2023-05-11T07:51:39;100250.69;;;16.85;64.17
30708;BME280;17458;48.958;8.284;2023-05-11T07:54:23;100244.25;;;16.77;64.01
30708;BME280;17458;48.958;8.284;2023-05-11T07:57:07;100240.19;;;16.94;64.01
30708;BME280;17458;48.958;8.284;2023-05-11T07:59:51;100238.47;;;16.97;64.61
30708;BME280;17458;48.958;8.284;2023-05-11T08:02:35;100239.84;;;16.79;63.57
30708;BME280;17458;48.958;8.284;2023-05-11T08:05:19;100237.31;;;16.86;63.19
30708;BME280;17458;48.958;8.284;2023-05-11T08:08:04;100235.34;;;16.78;63.46
30708;BME280;17458;48.958;8.284;2023-05-11T08:10:48;100250.56;;;16.79;64.07
30708;BME280;17458;48.958;8.284;2023-05-11T08:13:32;100240.16;;;16.92;64.46
30708;BME280;17458;48.958;8.284;2023-05-11T08:16:17;100251.25;;;17.09;63.03
30708;BME280;17458;48.958;8.284;2023-05-11T08:19:01;100243.34;;;17.17;63.82
30708;BME280;17458;48.958;8.284;2023-05-11T08:21:45;100253.19;;;17.16;63.93
30708;BME280;17458;48.958;8.284;2023-05-11T08:24:29;100243.41;;;17.18;64.15
30708;BME280;17458;48.958;8.284;2023-05-11T08:27:13;100246.06;;;16.78;65.84
30708;BME280;17458;48.958;8.284;2023-05-11T08:29:58;100249.25;;;17.00;64.59
30708;BME280;17458;48.958;8.284;2023-05-11T08:32:43;100249.72;;;17.20;63.36
30708;BME280;17458;48.958;8.284;2023-05-11T08:35:27;100249.97;;;17.32;63.63
30708;BME280;17458;48.958;8.284;2023-05-11T08:38:12;100246.69;;;17.05;63.89
30708;BME280;17458;48.958;8.284;2023-05-11T08:40:57;100242.06;;;16.99;64.34
30708;BME280;17458;48.958;8.284;2023-05-11T08:43:42;100250.84;;;17.31;61.80
30708;BME280;17458;48.958;8.284;2023-05-11T08:46:29;100245.63;;;17.81;61.02
30708;BME280;17458;48.958;8.284;2023-05-11T08:49:14;100242.91;;;17.80;61.59
30708;BME280;17458;48.958;8.284;2023-05-11T08:52:02;100250.69;;;17.66;61.28
30708;BME280;17458;48.958;8.284;2023-05-11T08:54:46;100248.41;;;17.87;62.19
30708;BME280;17458;48.958;8.284;2023-05-11T08:57:33;100240.25;;;17.83;61.19
30708;BME280;17458;48.958;8.284;2023-05-11T09:00:18;100245.44;;;17.72;61.14
30708;BME280;17458;48.958;8.284;2023-05-11T09:03:03;100242.19;;;17.90;61.12
30708;BME280;17458;48.958;8.284;2023-05-11T09:05:48;100242.38;;;17.54;61.59
30708;BME280;17458;48.958;8.284;2023-05-11T09:08:36;100243.09;;;17.90;61.22
30708;BME280;17458;48.958;8.284;2023-05-11T09:11:21;100240.81;;;18.13;61.48
30708;BME280;17458;48.958;8.284;2023-05-11T09:14:05;100247.78;;;18.02;60.85
30708;BME280;17458;48.958;8.284;2023-05-11T09:16:49;100242.97;;;18.32;58.28
30708;BME280;17458;48.958;8.284;2023-05-11T09:19:33;100244.09;;;18.47;59.61
30708;BME280;17458;48.958;8.284;2023-05-11T09:22:16;100246.84;;;18.00;60.16
30708;BME280;17458;48.958;8.284;2023-05-11T09:25:01;100243.13;;;18.43;58.90
30708;BME280;17458;48.958;8.284;2023-05-11T09:27:46;100237.91;;;18.52;58.51
30708;BME280;17458;48.958;8.284;2023-05-11T09:30:30;100244.44;;;18.15;59.98
30708;BME280;17458;48.958;8.284;2023-05-11T09:33:20;100243.38;;;18.05;60.24
30708;BME280;17458;48.958;8.284;2023-05-11T09:36:06;100236.50;;;18.21;60.07
30708;BME280;17458;48.958;8.284;2023-05-11T09:38:50;100238.09;;;18.10;59.79
30708;BME280;17458;48.958;8.284;2023-05-11T09:41:34;100238.63;;;17.91;60.54
30708;BME280;17458;48.958;8.284;2023-05-11T09:44:18;100236.34;;;18.14;59.69
30708;BME280;17458;48.958;8.284;2023-05-11T09:47:13;100240.59;;;18.54;59.43
30708;BME280;17458;48.958;8.284;2023-05-11T09:49:57;100236.38;;;18.65;58.12
30708;BME280;17458;48.958;8.284;2023-05-11T09:52:51;100235.91;;;18.93;57.31
30708;BME280;17458;48.958;8.284;2023-05-11T09:55:35;100233.78;;;18.72;57.27
30708;BME280;17458;48.958;8.284;2023-05-11T09:58:19;100235.94;;;18.98;57.16
30708;BME280;17458;48.958;8.284;2023-05-11T10:01:04;100234.38;;;18.56;58.55
30708;BME280;17458;48.958;8.284;2023-05-11T10:03:50;100226.56;;;18.70;58.34
30708;BME280;17458;48.958;8.284;2023-05-11T10:06:50;100232.84;;;18.70;56.27
30708;BME280;17458;48.958;8.284;2023-05-11T10:09:35;100231.09;;;18.72;56.57
30708;BME280;17458;48.958;8.284;2023-05-11T10:12:23;100231.53;;;19.03;56.44
30708;BME280;17458;48.958;8.284;2023-05-11T10:15:09;100227.63;;;18.80;57.75
30708;BME280;17458;48.958;8.284;2023-05-11T10:17:54;100235.84;;;18.90;58.37
30708;BME280;17458;48.958;8.284;2023-05-11T10:20:39;100223.75;;;18.62;57.59
30708;BME280;17458;48.958;8.284;2023-05-11T10:23:24;100227.66;;;18.84;56.64
30708;BME280;17458;48.958;8.284;2023-05-11T10:26:09;100218.38;;;18.62;56.62
30708;BME280;17458;48.958;8.284;2023-05-11T10:28:53;100220.66;;;18.94;56.45
30708;BME280;17458;48.958;8.284;2023-05-11T10:31:38;100222.97;;;19.34;55.32
30708;BME280;17458;48.958;8.284;2023-05-11T10:34:23;100218.50;;;19.38;54.87
30708;BME280;17458;48.958;8.284;2023-05-11T10:37:08;100218.72;;;19.50;55.32
30708;BME280;17458;48.958;8.284;2023-05-11T10:39:52;100213.84;;;19.22;55.71
30708;BME280;17458;48.958;8.284;2023-05-11T10:49:30;100220.97;;;19.94;54.35
30708;BME280;17458;48.958;8.284;2023-05-11T10:55:16;100220.44;;;18.82;55.32
30708;BME280;17458;48.958;8.284;2023-05-11T10:58:08;100209.88;;;19.62;55.45
30708;BME280;17458;48.958;8.284;2023-05-11T11:01:17;100205.41;;;19.65;53.62
30708;BME280;17458;48.958;8.284;2023-05-11T11:04:08;100213.56;;;19.71;56.62
30708;BME280;17458;48.958;8.284;2023-05-11T11:07:05;100200.81;;;19.55;52.47
30708;BME280;17458;48.958;8.284;2023-05-11T11:09:55;100202.97;;;19.90;53.42
30708;BME280;17458;48.958;8.284;2023-05-11T11:12:59;100210.13;;;19.13;54.52
30708;BME280;17458;48.958;8.284;2023-05-11T11:18:41;100203.56;;;19.60;54.18
30708;BME280;17458;48.958;8.284;2023-05-11T11:21:41;100205.53;;;19.74;55.38
30708;BME280;17458;48.958;8.284;2023-05-11T11:30:28;100197.16;;;19.52;53.12
30708;BME280;17458;48.958;8.284;2023-05-11T11:35:57;100189.59;;;19.20;53.02
30708;BME280;17458;48.958;8.284;2023-05-11T11:38:57;100189.41;;;19.77;53.14
30708;BME280;17458;48.958;8.284;2023-05-11T11:41:45;100187.47;;;19.64;52.99
30708;BME280;17458;48.958;8.284;2023-05-11T11:44:29;100186.13;;;20.13;52.99
30708;BME280;17458;48.958;8.284;2023-05-11T11:47:15;100183.50;;;20.24;51.04
30708;BME280;17458;48.958;8.284;2023-05-11T11:50:09;100190.97;;;20.54;51.90
30708;BME280;17458;48.958;8.284;2023-05-11T11:52:55;100184.28;;;20.06;52.75
30708;BME280;17458;48.958;8.284;2023-05-11T11:55:45;100191.16;;;20.81;50.84
30708;BME280;17458;48.958;8.284;2023-05-11T12:01:28;100189.66;;;21.38;49.48
30708;BME280;17458;48.958;8.284;2023-05-11T12:04:29;100176.16;;;21.32;49.49
30708;BME280;17458;48.958;8.284;2023-05-11T12:07:14;100182.41;;;21.23;50.87
30708;BME280;17458;48.958;8.284;2023-05-11T12:10:02;100184.06;;;21.00;50.59
30708;BME280;17458;48.958;8.284;2023-05-11T12:12:47;100179.19;;;20.40;52.10
30708;BME280;17458;48.958;8.284;2023-05-11T12:15:32;100172.06;;;20.51;51.37
30708;BME280;17458;48.958;8.284;2023-05-11T12:18:20;100172.31;;;20.94;50.70
30708;BME280;17458;48.958;8.284;2023-05-11T12:21:04;100164.81;;;20.42;51.11
30708;BME280;17458;48.958;8.284;2023-05-11T12:23:55;100168.63;;;20.78;50.81
30708;BME280;17458;48.958;8.284;2023-05-11T12:26:40;100168.53;;;20.64;51.95
30708;BME280;17458;48.958;8.284;2023-05-11T12:29:23;100159.47;;;20.50;50.19
30708;BME280;17458;48.958;8.284;2023-05-11T12:32:10;100157.78;;;20.67;50.22
30708;BME280;17458;48.958;8.284;2023-05-11T12:34:59;100146.16;;;20.74;48.97
30708;BME280;17458;48.958;8.284;2023-05-11T12:37:44;100152.53;;;20.95;48.92
30708;BME280;17458;48.958;8.284;2023-05-11T12:40:29;100148.66;;;20.50;50.63
30708;BME280;17458;48.958;8.284;2023-05-11T12:43:18;100144.75;;;20.07;50.98
30708;BME280;17458;48.958;8.284;2023-05-11T12:46:03;100155.06;;;20.63;49.69
30708;BME280;17458;48.958;8.284;2023-05-11T12:48:48;100153.03;;;20.33;53.45
30708;BME280;17458;48.958;8.284;2023-05-11T12:51:59;100145.31;;;20.89;49.96
30708;BME280;17458;48.958;8.284;2023-05-11T12:54:48;100137.41;;;21.26;49.61
30708;BME280;17458;48.958;8.284;2023-05-11T12:57:38;100130.09;;;21.02;49.14
30708;BME280;17458;48.958;8.284;2023-05-11T13:00:22;100131.00;;;21.10;48.82
30708;BME280;17458;48.958;8.284;2023-05-11T13:03:08;100123.78;;;21.00;48.16
30708;BME280;17458;48.958;8.284;2023-05-11T13:08:50;100119.78;;;20.34;48.21
30708;BME280;17458;48.958;8.284;2023-05-11T13:11:34;100110.50;;;19.98;49.59
30708;BME280;17458;48.958;8.284;2023-05-11T13:14:18;100116.88;;;20.09;49.60
30708;BME280;17458;48.958;8.284;2023-05-11T13:17:02;100110.06;;;20.56;47.78
30708;BME280;17458;48.958;8.284;2023-05-11T13:19:46;100109.19;;;20.64;47.76
30708;BME280;17458;48.958;8.284;2023-05-11T13:22:31;100104.50;;;20.33;48.18
30708;BME280;17458;48.958;8.284;2023-05-11T13:25:17;100098.41;;;20.60;48.25
30708;BME280;17458;48.958;8.284;2023-05-11T13:28:02;100095.06;;;21.20;47.28
30708;BME280;17458;48.958;8.284;2023-05-11T13:30:47;100090.38;;;20.78;47.55
30708;BME280;17458;48.958;8.284;2023-05-11T13:33:31;100091.47;;;21.21;46.84
30708;BME280;17458;48.958;8.284;2023-05-11T13:36:15;100092.22;;;20.86;47.54
30708;BME280;17458;48.958;8.284;2023-05-11T13:38:59;100085.22;;;21.43;47.33
30708;BME280;17458;48.958;8.284;2023-05-11T13:41:44;100085.22;;;21.48;47.62
30708;BME280;17458;48.958;8.284;2023-05-11T13:44:28;100094.31;;;22.03;47.88
30708;BME280;17458;48.958;8.284;2023-05-11T13:47:12;100084.31;;;21.49;46.35
30708;BME280;17458;48.958;8.284;2023-05-11T13:49:56;100076.22;;;21.90;46.43
30708;BME280;17458;48.958;8.284;2023-05-11T13:52:41;100083.44;;;21.44;45.23
30708;BME280;17458;48.958;8.284;2023-05-11T13:55:27;100075.28;;;21.24;45.65
30708;BME280;17458;48.958;8.284;2023-05-11T13:58:11;100071.66;;;21.20;45.83
30708;BME280;17458;48.958;8.284;2023-05-11T14:00:54;100075.28;;;21.19;45.18
30708;BME280;17458;48.958;8.284;2023-05-11T14:03:38;100068.09;;;21.49;45.22
30708;BME280;17458;48.958;8.284;2023-05-11T14:06:23;100064.34;;;20.87;45.34
30708;BME280;17458;48.958;8.284;2023-05-11T14:09:07;100069.91;;;21.50;45.72
30708;BME280;17458;48.958;8.284;2023-05-11T14:11:51;100068.09;;;21.37;45.03
30708;BME280;17458;48.958;8.284;2023-05-11T14:14:35;100066.28;;;21.34;46.64
30708;BME280;17458;48.958;8.284;2023-05-11T14:17:19;100054.53;;;21.18;45.73
30708;BME280;17458;48.958;8.284;2023-05-11T14:20:03;100059.06;;;21.21;46.72
30708;BME280;17458;48.958;8.284;2023-05-11T14:22:48;100055.50;;;21.42;45.25
30708;BME280;17458;48.958;8.284;2023-05-11T14:25:32;100062.72;;;21.69;45.37
30708;BME280;17458;48.958;8.284;2023-05-11T14:28:18;100054.44;;;20.96;45.39
30708;BME280;17458;48.958;8.284;2023-05-11T14:31:03;100053.69;;;21.36;45.92
30708;BME280;17458;48.958;8.284;2023-05-11T14:33:48;100051.00;;;21.41;44.53
30708;BME280;17458;48.958;8.284;2023-05-11T14:36:32;100049.22;;;21.66;44.89
30708;BME280;17458;48.958;8.284;2023-05-11T14:39:16;100047.28;;;21.04;43.72
30708;BME280;17458;48.958;8.284;2023-05-11T14:42:00;100055.50;;;21.37;42.86
30708;BME280;17458;48.958;8.284;2023-05-11T14:44:45;100051.91;;;21.96;43.55
30708;BME280;17458;48.958;8.284;2023-05-11T14:47:29;100041.97;;;21.90;42.78
30708;BME280;17458;48.958;8.284;2023-05-11T14:50:13;100042.00;;;21.77;42.32
30708;BME280;17458;48.958;8.284;2023-05-11T14:52:57;100042.00;;;21.55;42.99
30708;BME280;17458;48.958;8.284;2023-05-11T14:55:41;100036.59;;;22.07;43.10
30708;BME280;17458;48.958;8.284;2023-05-11T14:58:26;100040.19;;;22.06;42.13
30708;BME280;17458;48.958;8.284;2023-05-11T15:01:10;100044.72;;;21.72;41.76
30708;BME280;17458;48.958;8.284;2023-05-11T15:03:54;100043.75;;;22.33;41.30